WSSSVDPP

Guest
Details From WSSS - Singapore Changi Intl. Airport
To VDPP - Phnom Penh Intl
Flight Number -
Tags generated
Created
Modified
Stats Distance 617 nm / 1,143 km
Max Altitude 35,000 ft / 10,668 m
Waypoints 9
Social Downloads 3
Likes 0
Share VATSIM

Download

Looking for another format? Having issues loading an existing format? Contact us
Advertisement - Login to hide

Notes

Basic altitude profile: - Ascent Rate: 2500ft/min - Ascent Speed: 250kts - Cruise Altitude: 28000ft - Cruise Speed: 420kts - Descent Rate: 1500ft/min - Descent Speed: 250kts Options: - Use NATs: yes - Use PACOTS: yes - Use low airways: yes - Use high airways: yes

Route

WSSS ROBMO L642 ENREP M753 BITOD M755 BAVEN VDPP

ID Type Via Altitude Latitude Longitude Leg Dist Tot Dist Heading (true) Name
O WSSS APT - 0 ft / 0 m 1.35192˚ 103.99560˚ - 0 nm - Singapore Changi Intl. Airport
ROBMO FIX - 32,400 ft / 9,876 m 2.91111˚ 103.95000˚ 93 nm 93 nm 358° / 358° -
EGOLO FIX L642 (AWY-HI) 35,000 ft / 10,668 m 3.32667˚ 104.01333˚ 25 nm 118 nm 9° / 9° -
VEPLI FIX L642 (AWY-HI) 35,000 ft / 10,668 m 3.87306˚ 104.09500˚ 33 nm 152 nm 8° / 8° -
ENREP FIX L642 (AWY-HI) 35,000 ft / 10,668 m 4.87306˚ 104.24500˚ 60 nm 212 nm 9° / 9° -
IPRIX FIX M753 (AWY-HI) 34,000 ft / 10,363 m 7.00000˚ 104.13167˚ 127 nm 340 nm 357° / 357° -
BITOD FIX M753 (AWY-HI) 34,000 ft / 10,363 m 7.25667˚ 104.11833˚ 15 nm 356 nm 357° / 357° -
BAVEN FIX M755 (AWY-HI) 25,000 ft / 7,620 m 10.07472˚ 104.59556˚ 171 nm 527 nm 9° / 10° -
O VDPP APT - 0 ft / 0 m 11.54654˚ 104.84414˚ 89 nm 617 nm 9° / 9° Phnom Penh Intl

Altitude Profile

Advertisement - Login to hide

Weather


0- 5 10 15 20 25 30 35+ Temperature / ° C

Clouds and Precipitation
Forecast for 2017-12-18 12:00 UTC. Updated 15 minutes ago

Ground ~20,000 ft ~40,000 ft Winds

WSSS

Details ICAO WSSS (SIN)
Name Singapore Changi Intl. Airport
Region Singapore
Timezone Unknown (UTC+0.0)
Stats Elevation 22 ft / 7 m (AMSL)
Location 1.351917° 103.995603°
Runways 3
Magnetic Variation 0.229° E

METAR

WSSS 180930Z 04012KT 010V070 9999 FEW018 BKN300 28/22 Q1010 NOSIG

Decode

TAF

TAF AMD WSSS 180800Z 1808/1912 01012KT 9999 FEW015 SCT020 TEMPO 1904/1908 4500 SHRA FEW012CB BKN015

Decode

Departure Runways

ID Width Length Bearing (true) Bearing (mag) Surface Threshold Offset Overrun Length
02C 164 ft / 50 m 13,619 ft / 4,151 m 22.80° 22.57° Asphalt 200 ft / 61 m 0 ft / 0 m
02L 164 ft / 50 m 14,308 ft / 4,361 m 22.69° 22.46° Asphalt 200 ft / 61 m 0 ft / 0 m
02R 164 ft / 50 m 10,072 ft / 3,070 m 22.74° 22.51° Asphalt 600 ft / 183 m 0 ft / 0 m
20C 164 ft / 50 m 13,619 ft / 4,151 m 202.80° 202.57° Asphalt 200 ft / 61 m 0 ft / 0 m
20L 164 ft / 50 m 10,072 ft / 3,070 m 202.74° 202.51° Asphalt 499 ft / 152 m 0 ft / 0 m
20R 164 ft / 50 m 14,308 ft / 4,361 m 202.69° 202.46° Asphalt 3,301 ft / 1,006 m 0 ft / 0 m

VDPP

Details ICAO VDPP (PNH)
Name Phnom Penh Intl
Region Cambodia
Timezone Asia/Phnom_Penh (UTC+7.0)
Stats Elevation 40 ft / 12 m (AMSL)
Location 11.546542° 104.844142°
Runways 1
Magnetic Variation 0.493° W

METAR

VDPP 180930Z 36009KT 330V030 CAVOK 26/13 Q1012

Decode

TAF

TAF VDPP 180500Z 1806/1824 02010KT 9999 SCT017= TAF VDSR 180500Z 1806/1824 05010KT 9999 SCT017

Decode

Destination Runways

ID Width Length Bearing (true) Bearing (mag) Surface Threshold Offset Overrun Length
05 144 ft / 44 m 9,815 ft / 2,992 m 45.61° 46.10° Asphalt 400 ft / 122 m 0 ft / 0 m
23 144 ft / 44 m 9,815 ft / 2,992 m 225.61° 226.10° Asphalt 492 ft / 150 m 0 ft / 0 m

Approach Navaids

Runway Type Ident Frequency Range Bearing (true) Bearing (mag) Slope Elevation
23 Localiser IPNP 109.70 MHz 18 nm / 33 km 225.62° 226.11° - 40 ft / 12 m (AMSL)
23 Glidescope IPNP 109.70 MHz 10 nm / 19 km 225.61° 226.10° 3.00° 37 ft / 11 m (AMSL)

Popular Alternatives